createdAt,value
2023-01-13T00:01:28.031Z,74.82
2023-01-13T00:03:54.616Z,74.70
2023-01-13T00:06:24.428Z,74.80
2023-01-13T00:08:51.751Z,74.78
2023-01-13T00:11:19.461Z,75.15
2023-01-13T00:13:46.019Z,75.99
2023-01-13T00:16:14.773Z,75.15
2023-01-13T00:18:41.903Z,75.21
2023-01-13T00:21:14.977Z,74.87
2023-01-13T00:23:41.791Z,75.11
2023-01-13T00:26:11.238Z,75.38
2023-01-13T00:28:37.794Z,75.06
2023-01-13T00:31:05.979Z,75.17
2023-01-13T00:33:32.591Z,75.92
2023-01-13T00:36:00.913Z,75.16
2023-01-13T00:38:28.346Z,75.20
2023-01-13T00:40:56.466Z,75.27
2023-01-13T00:43:23.282Z,74.77
2023-01-13T00:45:49.817Z,75.50
2023-01-13T00:48:16.314Z,75.57
2023-01-13T00:50:42.998Z,75.85
2023-01-13T00:53:09.433Z,76.17
2023-01-13T00:55:35.913Z,75.91
2023-01-13T00:58:02.504Z,75.71
2023-01-13T01:00:33.139Z,76.04
2023-01-13T01:02:59.864Z,76.32
2023-01-13T01:05:26.287Z,76.21
2023-01-13T01:07:52.765Z,76.08
2023-01-13T01:10:19.389Z,76.04
2023-01-13T01:12:45.894Z,75.95
2023-01-13T01:15:12.736Z,75.44
2023-01-13T01:17:39.157Z,75.92
2023-01-13T01:20:06.057Z,76.05
2023-01-13T01:22:32.560Z,76.19
2023-01-13T01:24:58.995Z,76.24
2023-01-13T01:27:25.575Z,76.81
2023-01-13T01:29:52.092Z,77.12
2023-01-13T01:32:18.539Z,77.40
2023-01-13T01:34:44.977Z,76.81
2023-01-13T01:37:12.697Z,77.13
2023-01-13T01:39:39.197Z,76.92
2023-01-13T01:42:05.667Z,77.32
2023-01-13T01:44:58.457Z,77.53
2023-01-13T01:47:26.648Z,77.09
2023-01-13T01:49:53.290Z,77.48
2023-01-13T01:52:37.473Z,76.84
2023-01-13T01:55:17.893Z,77.13
2023-01-13T01:58:07.209Z,76.99
2023-01-13T02:00:33.915Z,76.76
2023-01-13T02:03:01.414Z,76.46
2023-01-13T02:05:27.886Z,76.50
2023-01-13T02:07:56.200Z,77.01
2023-01-13T02:10:26.078Z,77.42
2023-01-13T02:12:53.878Z,78.88
2023-01-13T02:15:33.232Z,77.54
2023-01-13T02:18:24.788Z,77.90
2023-01-13T02:21:18.940Z,77.66
2023-01-13T02:24:35.484Z,77.85
2023-01-13T02:27:31.372Z,78.42
2023-01-13T02:30:08.418Z,78.14
2023-01-13T02:32:50.328Z,78.27
2023-01-13T02:35:28.029Z,78.69
2023-01-13T02:37:57.652Z,78.62
2023-01-13T02:40:30.706Z,78.74
2023-01-13T02:43:23.643Z,80.00
2023-01-13T02:45:57.552Z,79.31
2023-01-13T02:48:27.513Z,80.68
2023-01-13T02:51:00.183Z,79.49
2023-01-13T02:53:35.982Z,79.66
2023-01-13T02:56:05.096Z,79.20
2023-01-13T02:58:35.936Z,78.46
2023-01-13T03:01:02.445Z,79.24
2023-01-13T03:03:29.021Z,79.31
2023-01-13T03:06:19.193Z,78.07
2023-01-13T03:09:12.029Z,78.29
2023-01-13T03:11:54.712Z,77.16
2023-01-13T03:14:33.834Z,77.94
2023-01-13T03:17:17.835Z,77.50
2023-01-13T03:19:56.635Z,77.48
2023-01-13T03:22:43.997Z,77.04
2023-01-13T03:25:18.984Z,77.72
2023-01-13T03:27:50.239Z,78.20
2023-01-13T03:30:28.310Z,78.09
2023-01-13T03:33:00.949Z,78.16
2023-01-13T03:35:40.691Z,78.23
2023-01-13T03:38:16.235Z,79.09
2023-01-13T03:40:54.362Z,78.95
2023-01-13T03:43:31.726Z,78.66
2023-01-13T03:46:02.874Z,79.62
2023-01-13T03:48:33.464Z,77.89
2023-01-13T03:51:10.807Z,77.04
2023-01-13T03:53:43.470Z,77.21
2023-01-13T03:56:24.148Z,76.88
2023-01-13T03:58:52.697Z,77.10
2023-01-13T04:01:21.624Z,77.29
2023-01-13T04:04:03.239Z,78.33
2023-01-13T04:06:57.987Z,76.06
2023-01-13T04:09:52.494Z,77.62
2023-01-13T04:12:28.552Z,76.19
2023-01-13T04:14:56.280Z,75.67
2023-01-13T04:17:22.831Z,76.84
2023-01-13T04:19:49.179Z,75.77
2023-01-13T04:22:15.526Z,76.08
2023-01-13T04:24:41.873Z,76.28
2023-01-13T04:27:08.185Z,76.46
2023-01-13T04:29:34.560Z,75.59
2023-01-13T04:32:00.840Z,76.04
2023-01-13T04:34:28.500Z,76.10
2023-01-13T04:36:54.882Z,75.52
2023-01-13T04:39:21.172Z,74.81
2023-01-13T04:41:47.604Z,75.08
2023-01-13T04:44:13.929Z,75.15
2023-01-13T04:46:40.298Z,76.21
2023-01-13T04:49:06.562Z,75.26
2023-01-13T04:51:32.891Z,76.07
2023-01-13T04:53:59.354Z,74.68
2023-01-13T04:56:25.622Z,73.51
2023-01-13T04:58:51.919Z,73.39
2023-01-13T05:01:18.421Z,75.41
2023-01-13T05:03:44.860Z,76.95
2023-01-13T05:06:11.442Z,78.29
2023-01-13T05:08:37.729Z,78.55
2023-01-13T05:11:04.019Z,80.43
2023-01-13T05:13:30.392Z,81.13
2023-01-13T05:15:56.695Z,77.33
2023-01-13T05:18:23.080Z,77.33
2023-01-13T05:20:49.955Z,79.23
2023-01-13T05:23:16.460Z,78.22
2023-01-13T05:25:44.367Z,79.65
2023-01-13T05:28:11.454Z,80.44
2023-01-13T05:30:40.083Z,80.83
2023-01-13T05:33:06.495Z,81.67
2023-01-13T05:35:32.917Z,82.10
2023-01-13T05:37:59.364Z,84.05
2023-01-13T05:40:25.731Z,83.64
2023-01-13T05:43:07.207Z,84.95
2023-01-13T05:45:33.559Z,85.32
2023-01-13T05:47:59.952Z,86.87
2023-01-13T05:50:26.258Z,87.86
2023-01-13T05:52:52.556Z,88.22
2023-01-13T05:55:18.945Z,88.98
2023-01-13T05:57:45.279Z,86.16
2023-01-13T06:00:12.228Z,84.74
2023-01-13T06:02:39.167Z,82.58
2023-01-13T06:05:05.721Z,83.02
2023-01-13T06:07:32.145Z,81.52
2023-01-13T06:09:58.454Z,83.64
2023-01-13T06:12:24.940Z,80.46
2023-01-13T06:14:51.355Z,79.46
2023-01-13T06:17:18.636Z,78.53
2023-01-13T06:19:45.086Z,81.47
2023-01-13T06:22:21.878Z,80.74
2023-01-13T06:24:49.883Z,81.92
2023-01-13T06:27:17.029Z,82.60
2023-01-13T06:29:43.434Z,83.46
2023-01-13T06:32:26.772Z,84.22
2023-01-13T06:35:01.272Z,86.01
2023-01-13T06:37:29.959Z,86.59
2023-01-13T06:39:59.514Z,85.88
2023-01-13T06:42:29.561Z,87.48
2023-01-13T06:44:56.179Z,85.69
2023-01-13T06:47:23.336Z,87.04
2023-01-13T06:49:49.829Z,87.36
2023-01-13T06:52:16.181Z,87.69
2023-01-13T06:54:42.744Z,86.17
2023-01-13T06:57:09.200Z,87.00
2023-01-13T06:59:36.423Z,87.14
2023-01-13T07:02:03.351Z,88.69
2023-01-13T07:04:29.793Z,88.99
2023-01-13T07:06:56.295Z,90.14
2023-01-13T07:09:22.864Z,88.41
2023-01-13T07:11:49.376Z,87.05
2023-01-13T07:14:15.747Z,86.80
2023-01-13T07:16:42.147Z,86.27
2023-01-13T07:19:08.493Z,85.03
2023-01-13T07:21:34.775Z,84.29
2023-01-13T07:24:01.159Z,85.75
2023-01-13T07:26:27.520Z,82.94
2023-01-13T07:28:53.908Z,83.74
2023-01-13T07:31:21.677Z,84.22
2023-01-13T07:33:48.164Z,85.05
2023-01-13T07:36:15.324Z,84.16
2023-01-13T07:38:41.818Z,85.43
2023-01-13T07:41:12.823Z,85.59
2023-01-13T07:43:39.265Z,84.96
2023-01-13T07:46:06.182Z,82.86
2023-01-13T07:48:34.010Z,81.98
2023-01-13T07:51:05.570Z,80.51
2023-01-13T07:53:32.274Z,81.06
2023-01-13T07:55:59.333Z,78.35
2023-01-13T07:58:26.938Z,78.30
2023-01-13T08:00:54.164Z,77.72
2023-01-13T08:03:20.841Z,78.27
2023-01-13T08:05:47.729Z,78.35
2023-01-13T08:08:14.813Z,77.60
2023-01-13T08:10:41.223Z,76.89
2023-01-13T08:13:12.558Z,79.09
2023-01-13T08:15:39.048Z,80.79
2023-01-13T08:18:05.443Z,80.72
2023-01-13T08:20:32.036Z,79.85
2023-01-13T08:23:00.699Z,79.90
2023-01-13T08:25:28.532Z,79.22
2023-01-13T08:27:55.406Z,80.59
2023-01-13T08:30:22.427Z,80.82
2023-01-13T08:32:50.181Z,79.26
2023-01-13T08:35:18.059Z,78.41
2023-01-13T08:37:45.670Z,78.33
2023-01-13T08:40:13.498Z,80.42
2023-01-13T08:42:40.476Z,78.80
2023-01-13T08:45:07.751Z,78.26
2023-01-13T08:47:34.529Z,78.66
2023-01-13T08:50:01.340Z,75.67
2023-01-13T08:52:29.504Z,75.79
2023-01-13T08:54:55.909Z,73.48
2023-01-13T08:57:22.465Z,70.27
2023-01-13T08:59:49.010Z,68.25
2023-01-13T09:02:18.870Z,69.10
2023-01-13T09:04:46.912Z,70.11
2023-01-13T09:07:14.890Z,70.10
2023-01-13T09:09:41.428Z,70.96
2023-01-13T09:12:11.537Z,71.45
2023-01-13T09:14:38.571Z,70.81
2023-01-13T09:17:05.969Z,69.13
2023-01-13T09:19:32.506Z,69.43
2023-01-13T09:21:59.199Z,67.13
2023-01-13T09:24:25.987Z,68.27
2023-01-13T09:26:52.489Z,69.60
2023-01-13T09:29:19.378Z,69.68
2023-01-13T09:31:45.921Z,69.59
2023-01-13T09:34:17.767Z,69.92
2023-01-13T09:36:44.082Z,68.25
2023-01-13T09:39:10.527Z,68.81
2023-01-13T09:41:49.510Z,70.96
2023-01-13T09:44:25.871Z,71.40
2023-01-13T09:47:00.331Z,71.83
2023-01-13T09:49:39.394Z,72.09
2023-01-13T09:52:26.690Z,71.87
2023-01-13T09:55:22.724Z,69.26
2023-01-13T09:57:49.175Z,68.06
2023-01-13T10:00:23.896Z,68.19
2023-01-13T10:03:18.313Z,68.11
2023-01-13T10:05:56.944Z,69.38
2023-01-13T10:08:29.728Z,69.64
2023-01-13T10:11:02.276Z,69.20
2023-01-13T10:13:30.773Z,69.19
2023-01-13T10:16:12.414Z,67.50
2023-01-13T10:18:53.043Z,68.23
2023-01-13T10:21:39.194Z,68.15
2023-01-13T10:24:12.581Z,67.82
2023-01-13T10:26:51.093Z,66.98
2023-01-13T10:29:23.839Z,65.92
2023-01-13T10:31:51.004Z,65.97
2023-01-13T10:34:17.775Z,66.93
2023-01-13T10:36:55.298Z,67.40
2023-01-13T10:39:21.847Z,67.64
2023-01-13T10:41:48.275Z,68.08
2023-01-13T10:44:17.440Z,69.38
2023-01-13T10:46:54.428Z,67.14
2023-01-13T10:49:36.417Z,64.62
2023-01-13T10:52:23.624Z,63.61
2023-01-13T10:54:53.155Z,63.75
2023-01-13T10:57:23.272Z,64.99
2023-01-13T10:59:50.357Z,66.33
2023-01-13T11:02:25.224Z,66.55
2023-01-13T11:04:55.719Z,66.71
2023-01-13T11:07:33.377Z,65.04
2023-01-13T11:10:10.533Z,65.71
2023-01-13T11:12:50.838Z,65.65
2023-01-13T11:15:21.800Z,64.84
2023-01-13T11:18:01.830Z,64.89
2023-01-13T11:20:33.697Z,64.39
2023-01-13T11:23:21.145Z,65.79
2023-01-13T11:25:52.001Z,64.93
2023-01-13T11:28:41.977Z,65.09
2023-01-13T11:31:13.891Z,63.13
2023-01-13T11:33:55.142Z,62.50
2023-01-13T11:36:25.814Z,62.01
2023-01-13T11:38:55.815Z,61.96
2023-01-13T11:41:35.288Z,59.93
2023-01-13T11:44:10.911Z,57.95
2023-01-13T11:46:37.597Z,56.60
2023-01-13T11:49:05.070Z,53.43
2023-01-13T11:51:39.774Z,53.71
2023-01-13T11:54:25.220Z,55.02
2023-01-13T11:57:17.852Z,55.92
2023-01-13T12:00:04.212Z,56.13
2023-01-13T12:02:52.773Z,55.83
2023-01-13T12:05:26.204Z,56.81
2023-01-13T12:08:08.278Z,57.30
2023-01-13T12:10:52.025Z,58.94
2023-01-13T12:13:40.085Z,56.67
2023-01-13T12:16:46.360Z,58.84
2023-01-13T12:19:26.262Z,57.61
2023-01-13T12:22:13.973Z,57.73
2023-01-13T12:24:49.573Z,56.68
2023-01-13T12:27:20.098Z,57.25
2023-01-13T12:29:48.769Z,55.64
2023-01-13T12:32:18.278Z,58.82
2023-01-13T12:35:08.739Z,57.76
2023-01-13T12:37:52.877Z,57.64
2023-01-13T12:40:36.413Z,57.80
2023-01-13T12:43:20.275Z,59.40
2023-01-13T12:45:46.766Z,56.12
2023-01-13T12:48:44.998Z,56.23
2023-01-13T12:51:22.575Z,56.77
2023-01-13T12:53:49.481Z,57.97
2023-01-13T12:56:30.089Z,55.42
2023-01-13T12:59:25.892Z,53.68
2023-01-13T13:02:12.548Z,54.29
2023-01-13T13:04:48.589Z,57.08
2023-01-13T13:07:29.825Z,56.05
2023-01-13T13:10:16.013Z,53.87
2023-01-13T13:12:42.509Z,55.58
2023-01-13T13:15:23.851Z,55.20
2023-01-13T13:17:59.221Z,55.13
2023-01-13T13:21:05.025Z,54.41
2023-01-13T13:23:34.277Z,55.82
2023-01-13T13:26:15.300Z,53.58
2023-01-13T13:29:11.074Z,53.88
2023-01-13T13:32:10.813Z,54.17
2023-01-13T13:35:21.836Z,54.20
2023-01-13T13:38:05.311Z,52.99
2023-01-13T13:40:39.277Z,52.51
2023-01-13T13:43:12.960Z,49.82
2023-01-13T13:45:51.359Z,51.40
2023-01-13T13:48:26.891Z,52.23
2023-01-13T13:50:54.713Z,53.56
2023-01-13T13:53:22.316Z,53.00
2023-01-13T13:55:59.639Z,53.46
2023-01-13T13:58:28.694Z,53.68
2023-01-13T14:00:56.791Z,52.45
2023-01-13T14:03:32.460Z,50.59
2023-01-13T14:06:00.961Z,51.47
2023-01-13T14:08:29.529Z,50.52
2023-01-13T14:10:56.542Z,50.76
2023-01-13T14:13:31.492Z,48.83
2023-01-13T14:16:03.414Z,49.43
2023-01-13T14:18:33.058Z,51.16
2023-01-13T14:21:20.113Z,51.64
2023-01-13T14:23:53.414Z,52.48
2023-01-13T14:26:25.937Z,53.34
2023-01-13T14:28:53.390Z,53.03
2023-01-13T14:31:20.115Z,53.60
2023-01-13T14:33:49.424Z,53.45
2023-01-13T14:36:31.951Z,53.79
2023-01-13T14:39:04.474Z,54.54
2023-01-13T14:41:44.298Z,54.36
2023-01-13T14:44:21.287Z,54.93
2023-01-13T14:46:48.053Z,55.19
2023-01-13T14:49:40.041Z,54.73
2023-01-13T14:52:13.965Z,55.87
2023-01-13T14:55:06.318Z,55.28
2023-01-13T14:57:35.093Z,55.23
2023-01-13T15:00:13.819Z,55.78
2023-01-13T15:02:58.575Z,57.84
2023-01-13T15:05:29.301Z,57.67
2023-01-13T15:08:25.722Z,57.18
2023-01-13T15:10:55.720Z,58.01
2023-01-13T15:13:36.670Z,57.44
2023-01-13T15:16:07.024Z,62.78
2023-01-13T15:18:33.670Z,67.82
2023-01-13T15:21:00.062Z,73.08
2023-01-13T15:23:26.459Z,75.00
2023-01-13T15:25:52.899Z,77.46
2023-01-13T15:28:25.713Z,77.63
2023-01-13T15:30:53.988Z,78.56
2023-01-13T15:33:21.833Z,77.04
2023-01-13T15:35:52.185Z,78.52
2023-01-13T15:38:22.702Z,77.60
2023-01-13T15:40:51.014Z,78.25
2023-01-13T15:43:21.710Z,76.72
2023-01-13T15:45:48.089Z,76.59
2023-01-13T15:48:14.865Z,77.14
2023-01-13T15:50:41.167Z,77.17
2023-01-13T15:53:10.436Z,77.02
2023-01-13T15:55:38.044Z,75.74
2023-01-13T15:58:04.890Z,75.79
2023-01-13T16:00:31.648Z,73.96
2023-01-13T16:02:58.154Z,74.84
2023-01-13T16:05:24.478Z,74.50
2023-01-13T16:07:50.790Z,75.15
2023-01-13T16:10:24.871Z,74.45
2023-01-13T16:12:51.404Z,75.28
2023-01-13T16:15:19.329Z,73.63
2023-01-13T16:17:47.132Z,74.36
2023-01-13T16:20:15.400Z,74.49
2023-01-13T16:22:42.360Z,74.90
2023-01-13T16:25:15.914Z,76.68
2023-01-13T16:27:42.296Z,77.80
2023-01-13T16:30:21.741Z,80.11
2023-01-13T16:32:48.366Z,81.16
2023-01-13T16:35:14.948Z,81.42
2023-01-13T16:37:41.471Z,82.03
2023-01-13T16:40:18.134Z,82.42
2023-01-13T16:42:44.517Z,79.27
2023-01-13T16:45:11.176Z,81.22
2023-01-13T16:47:37.513Z,80.98
2023-01-13T16:50:04.229Z,80.42
2023-01-13T16:52:30.503Z,78.28
2023-01-13T16:54:56.984Z,78.09
2023-01-13T16:57:23.516Z,79.16
2023-01-13T16:59:49.788Z,79.35
2023-01-13T17:02:16.433Z,79.67
2023-01-13T17:04:42.937Z,77.42
2023-01-13T17:07:12.679Z,78.06
2023-01-13T17:09:39.244Z,78.64
2023-01-13T17:12:05.782Z,78.20
2023-01-13T17:14:32.205Z,80.25
2023-01-13T17:16:58.517Z,78.14
2023-01-13T17:19:25.317Z,78.07
2023-01-13T17:21:51.672Z,78.61
2023-01-13T17:24:18.178Z,78.92
2023-01-13T17:26:47.625Z,76.83
2023-01-13T17:29:19.761Z,77.78
2023-01-13T17:31:46.249Z,78.79
2023-01-13T17:34:13.538Z,77.54
2023-01-13T17:36:40.197Z,77.03
2023-01-13T17:39:06.569Z,75.76
2023-01-13T17:41:32.937Z,77.40
2023-01-13T17:43:59.299Z,77.36
2023-01-13T17:46:25.754Z,76.90
2023-01-13T17:48:52.343Z,77.79
2023-01-13T17:51:20.220Z,76.36
2023-01-13T17:53:46.623Z,76.27
2023-01-13T17:56:14.911Z,75.49
2023-01-13T17:58:41.659Z,74.45
2023-01-13T18:01:10.451Z,73.45
2023-01-13T18:03:39.157Z,74.35
2023-01-13T18:06:08.710Z,76.29
2023-01-13T18:08:35.115Z,75.56
2023-01-13T18:11:01.786Z,76.38
2023-01-13T18:13:29.464Z,75.94
2023-01-13T18:16:00.421Z,75.18
2023-01-13T18:18:26.739Z,73.65
2023-01-13T18:20:53.710Z,74.71
2023-01-13T18:23:21.401Z,73.97
2023-01-13T18:25:48.199Z,74.27
2023-01-13T18:28:14.857Z,74.07
2023-01-13T18:30:41.181Z,73.51
2023-01-13T18:33:07.572Z,74.54
2023-01-13T18:35:33.992Z,74.16
2023-01-13T18:38:00.449Z,75.24
2023-01-13T18:40:26.860Z,75.93
2023-01-13T18:42:53.157Z,76.23
2023-01-13T18:45:25.433Z,75.97
2023-01-13T18:47:54.309Z,77.07
2023-01-13T18:50:20.786Z,77.44
2023-01-13T18:52:47.082Z,75.69
2023-01-13T18:55:13.413Z,76.25
2023-01-13T18:57:40.113Z,74.70
2023-01-13T19:00:10.834Z,75.70
2023-01-13T19:02:37.245Z,74.94
2023-01-13T19:05:04.009Z,75.83
2023-01-13T19:07:30.663Z,76.60
2023-01-13T19:09:57.199Z,77.76
2023-01-13T19:12:23.677Z,76.22
2023-01-13T19:14:49.984Z,76.72
2023-01-13T19:17:16.414Z,75.31
2023-01-13T19:19:50.967Z,74.49
2023-01-13T19:22:19.993Z,75.37
2023-01-13T19:24:46.565Z,74.07
2023-01-13T19:27:14.396Z,75.60
2023-01-13T19:29:43.284Z,75.12
2023-01-13T19:32:18.155Z,75.24
2023-01-13T19:34:44.723Z,74.48
2023-01-13T19:37:11.143Z,74.37
2023-01-13T19:39:37.796Z,76.04
2023-01-13T19:42:04.492Z,74.77
2023-01-13T19:44:30.914Z,75.87
2023-01-13T19:46:58.535Z,74.90
2023-01-13T19:49:24.833Z,76.35
2023-01-13T19:51:51.120Z,75.56
2023-01-13T19:54:17.785Z,74.58
2023-01-13T19:56:44.107Z,75.12
2023-01-13T19:59:11.819Z,75.15
2023-01-13T20:01:38.214Z,75.68
2023-01-13T20:04:04.763Z,76.23
2023-01-13T20:06:31.379Z,75.50
2023-01-13T20:08:57.704Z,75.32
2023-01-13T20:11:24.613Z,76.37
2023-01-13T20:13:50.892Z,76.28
2023-01-13T20:16:17.316Z,74.74
2023-01-13T20:18:43.646Z,75.08
2023-01-13T20:21:09.986Z,74.37
2023-01-13T20:23:36.634Z,74.68
2023-01-13T20:26:07.704Z,75.24
2023-01-13T20:28:34.396Z,75.07
2023-01-13T20:31:00.700Z,75.07
2023-01-13T20:33:27.106Z,74.73
2023-01-13T20:35:57.885Z,74.22
2023-01-13T20:38:24.230Z,73.54
2023-01-13T20:41:00.788Z,74.07
2023-01-13T20:43:27.339Z,74.18
2023-01-13T20:45:53.655Z,73.94
2023-01-13T20:48:20.430Z,73.30
2023-01-13T20:50:52.550Z,74.38
2023-01-13T20:53:18.983Z,75.26
2023-01-13T20:55:45.334Z,74.42
2023-01-13T20:58:11.795Z,74.52
2023-01-13T21:00:38.288Z,74.22
2023-01-13T21:03:04.642Z,74.43
2023-01-13T21:05:31.189Z,76.18
2023-01-13T21:07:57.499Z,77.08
2023-01-13T21:10:23.848Z,75.34
2023-01-13T21:12:50.138Z,75.70
2023-01-13T21:15:16.504Z,74.89
2023-01-13T21:17:43.982Z,75.87
2023-01-13T21:20:12.179Z,77.41
2023-01-13T21:22:38.996Z,77.66
2023-01-13T21:25:06.008Z,78.43
2023-01-13T21:27:32.372Z,78.04
2023-01-13T21:29:58.995Z,78.48
2023-01-13T21:32:25.930Z,76.45
2023-01-13T21:34:52.224Z,76.71
2023-01-13T21:37:18.733Z,75.78
2023-01-13T21:39:45.404Z,75.83
2023-01-13T21:42:15.453Z,76.53
2023-01-13T21:44:42.123Z,73.17
2023-01-13T21:47:16.689Z,74.39
2023-01-13T21:49:42.991Z,75.11
2023-01-13T21:52:10.370Z,75.77
2023-01-13T21:54:36.792Z,76.30
2023-01-13T21:57:03.565Z,75.41
2023-01-13T21:59:29.871Z,74.03
2023-01-13T22:02:23.928Z,75.74
2023-01-13T22:04:42.689Z,76.71
2023-01-13T22:07:09.039Z,75.09
2023-01-13T22:09:35.409Z,74.86
2023-01-13T22:12:01.705Z,73.85
2023-01-13T22:14:27.978Z,73.83
2023-01-13T22:16:54.450Z,73.47
2023-01-13T22:19:20.896Z,73.37
2023-01-13T22:21:47.268Z,74.40
2023-01-13T22:24:15.012Z,74.82
2023-01-13T22:26:41.401Z,73.15
2023-01-13T22:29:07.713Z,75.17
2023-01-13T22:31:34.048Z,74.73
2023-01-13T22:34:00.664Z,74.25
2023-01-13T22:36:27.312Z,74.71
2023-01-13T22:38:55.576Z,73.78
2023-01-13T22:41:22.209Z,71.79
2023-01-13T22:43:48.570Z,71.45
2023-01-13T22:46:14.997Z,72.09
2023-01-13T22:48:41.436Z,71.69
2023-01-13T22:51:09.057Z,70.88
2023-01-13T22:53:36.086Z,70.79
2023-01-13T22:56:02.739Z,71.78
2023-01-13T22:58:29.397Z,72.31
2023-01-13T23:00:56.386Z,72.26
2023-01-13T23:03:23.816Z,73.35
2023-01-13T23:05:56.575Z,74.46
2023-01-13T23:08:22.863Z,73.51
2023-01-13T23:10:49.136Z,74.41
2023-01-13T23:13:15.545Z,74.65
2023-01-13T23:15:41.868Z,74.73
2023-01-13T23:18:08.277Z,74.84
2023-01-13T23:20:34.653Z,74.59
2023-01-13T23:23:00.931Z,73.60
2023-01-13T23:25:27.314Z,72.55
2023-01-13T23:27:53.693Z,73.02
2023-01-13T23:30:20.122Z,72.96
2023-01-13T23:32:46.457Z,73.59
2023-01-13T23:35:12.819Z,72.73
2023-01-13T23:37:39.111Z,71.74
2023-01-13T23:40:05.879Z,72.17
2023-01-13T23:42:32.223Z,71.84
2023-01-13T23:44:58.493Z,72.09
2023-01-13T23:47:24.794Z,70.45
2023-01-13T23:49:51.197Z,71.46
2023-01-13T23:52:17.497Z,72.19
2023-01-13T23:54:43.871Z,71.61
2023-01-13T23:57:10.357Z,73.17
2023-01-13T23:59:36.660Z,72.68
